sensor_id;sensor_type;location;lat;lon;timestamp;P1;durP1;ratioP1;P2;durP2;ratioP2
75427;SDS011;64008;55.612;37.698;2023-04-07T00:02:24;5.03;;;1.50;;
75427;SDS011;64008;55.612;37.698;2023-04-07T00:04:51;6.20;;;1.65;;
75427;SDS011;64008;55.612;37.698;2023-04-07T00:07:16;5.10;;;1.38;;
75427;SDS011;64008;55.612;37.698;2023-04-07T00:09:42;5.07;;;1.33;;
75427;SDS011;64008;55.612;37.698;2023-04-07T00:12:07;3.88;;;1.27;;
75427;SDS011;64008;55.612;37.698;2023-04-07T00:14:33;6.47;;;1.95;;
75427;SDS011;64008;55.612;37.698;2023-04-07T00:16:58;5.03;;;1.35;;
75427;SDS011;64008;55.612;37.698;2023-04-07T00:19:24;3.92;;;1.40;;
75427;SDS011;64008;55.612;37.698;2023-04-07T00:21:49;6.00;;;1.70;;
75427;SDS011;64008;55.612;37.698;2023-04-07T00:24:15;5.55;;;1.45;;
75427;SDS011;64008;55.612;37.698;2023-04-07T00:26:41;3.78;;;1.48;;
75427;SDS011;64008;55.612;37.698;2023-04-07T00:29:06;7.00;;;1.30;;
75427;SDS011;64008;55.612;37.698;2023-04-07T00:31:33;4.50;;;1.30;;
75427;SDS011;64008;55.612;37.698;2023-04-07T00:33:58;4.97;;;1.48;;
75427;SDS011;64008;55.612;37.698;2023-04-07T00:36:24;6.80;;;1.33;;
75427;SDS011;64008;55.612;37.698;2023-04-07T00:38:51;4.13;;;1.30;;
75427;SDS011;64008;55.612;37.698;2023-04-07T00:41:16;5.70;;;1.55;;
75427;SDS011;64008;55.612;37.698;2023-04-07T00:43:42;4.10;;;1.02;;
75427;SDS011;64008;55.612;37.698;2023-04-07T00:46:07;5.18;;;1.27;;
75427;SDS011;64008;55.612;37.698;2023-04-07T00:48:33;4.85;;;1.02;;
75427;SDS011;64008;55.612;37.698;2023-04-07T00:50:59;3.47;;;1.08;;
75427;SDS011;64008;55.612;37.698;2023-04-07T00:53:24;4.78;;;1.23;;
75427;SDS011;64008;55.612;37.698;2023-04-07T00:55:50;4.35;;;1.20;;
75427;SDS011;64008;55.612;37.698;2023-04-07T00:58:15;3.53;;;1.15;;
75427;SDS011;64008;55.612;37.698;2023-04-07T01:01:14;5.68;;;1.35;;
75427;SDS011;64008;55.612;37.698;2023-04-07T01:06:30;4.85;;;1.30;;
75427;SDS011;64008;55.612;37.698;2023-04-07T01:09:01;4.55;;;1.13;;
75427;SDS011;64008;55.612;37.698;2023-04-07T01:14:21;6.72;;;1.40;;
75427;SDS011;64008;55.612;37.698;2023-04-07T01:16:49;5.95;;;1.20;;
75427;SDS011;64008;55.612;37.698;2023-04-07T01:21:42;5.88;;;1.48;;
75427;SDS011;64008;55.612;37.698;2023-04-07T01:26:55;5.47;;;1.63;;
75427;SDS011;64008;55.612;37.698;2023-04-07T01:29:30;4.95;;;1.10;;
75427;SDS011;64008;55.612;37.698;2023-04-07T01:32:01;4.18;;;1.30;;
75427;SDS011;64008;55.612;37.698;2023-04-07T01:34:30;5.95;;;1.42;;
75427;SDS011;64008;55.612;37.698;2023-04-07T01:36:57;5.50;;;1.67;;
75427;SDS011;64008;55.612;37.698;2023-04-07T01:39:25;8.25;;;1.58;;
75427;SDS011;64008;55.612;37.698;2023-04-07T01:44:17;6.43;;;1.30;;
75427;SDS011;64008;55.612;37.698;2023-04-07T01:46:44;9.25;;;1.55;;
75427;SDS011;64008;55.612;37.698;2023-04-07T01:49:10;6.53;;;1.50;;
75427;SDS011;64008;55.612;37.698;2023-04-07T01:54:03;6.18;;;1.40;;
75427;SDS011;64008;55.612;37.698;2023-04-07T01:58:55;6.30;;;1.50;;
75427;SDS011;64008;55.612;37.698;2023-04-07T02:01:20;5.68;;;1.60;;
75427;SDS011;64008;55.612;37.698;2023-04-07T02:03:49;4.97;;;1.40;;
75427;SDS011;64008;55.612;37.698;2023-04-07T02:06:21;6.82;;;1.58;;
75427;SDS011;64008;55.612;37.698;2023-04-07T02:08:51;5.38;;;1.35;;
75427;SDS011;64008;55.612;37.698;2023-04-07T02:11:21;5.63;;;1.65;;
75427;SDS011;64008;55.612;37.698;2023-04-07T02:13:51;5.18;;;1.40;;
75427;SDS011;64008;55.612;37.698;2023-04-07T02:16:18;5.30;;;1.20;;
75427;SDS011;64008;55.612;37.698;2023-04-07T02:18:44;7.75;;;1.70;;
75427;SDS011;64008;55.612;37.698;2023-04-07T02:21:11;4.47;;;1.30;;
75427;SDS011;64008;55.612;37.698;2023-04-07T02:23:39;7.47;;;1.65;;
75427;SDS011;64008;55.612;37.698;2023-04-07T02:26:05;6.50;;;1.48;;
75427;SDS011;64008;55.612;37.698;2023-04-07T02:28:30;6.22;;;1.55;;
75427;SDS011;64008;55.612;37.698;2023-04-07T02:30:56;5.47;;;1.38;;
75427;SDS011;64008;55.612;37.698;2023-04-07T02:33:21;6.53;;;1.52;;
75427;SDS011;64008;55.612;37.698;2023-04-07T02:35:47;6.63;;;1.40;;
75427;SDS011;64008;55.612;37.698;2023-04-07T02:38:12;5.63;;;1.48;;
75427;SDS011;64008;55.612;37.698;2023-04-07T02:40:38;5.18;;;1.55;;
75427;SDS011;64008;55.612;37.698;2023-04-07T02:43:03;5.40;;;1.88;;
75427;SDS011;64008;55.612;37.698;2023-04-07T02:45:29;6.88;;;1.40;;
75427;SDS011;64008;55.612;37.698;2023-04-07T02:47:55;7.38;;;1.60;;
75427;SDS011;64008;55.612;37.698;2023-04-07T02:50:20;6.82;;;1.70;;
75427;SDS011;64008;55.612;37.698;2023-04-07T02:52:46;5.53;;;1.70;;
75427;SDS011;64008;55.612;37.698;2023-04-07T02:55:12;8.02;;;1.60;;
75427;SDS011;64008;55.612;37.698;2023-04-07T02:57:37;7.25;;;1.63;;
75427;SDS011;64008;55.612;37.698;2023-04-07T03:00:03;4.82;;;1.58;;
75427;SDS011;64008;55.612;37.698;2023-04-07T03:02:29;7.93;;;1.83;;
75427;SDS011;64008;55.612;37.698;2023-04-07T03:04:54;6.85;;;1.90;;
75427;SDS011;64008;55.612;37.698;2023-04-07T03:07:20;7.53;;;1.80;;
75427;SDS011;64008;55.612;37.698;2023-04-07T03:09:45;5.88;;;1.60;;
75427;SDS011;64008;55.612;37.698;2023-04-07T03:12:11;6.35;;;1.80;;
75427;SDS011;64008;55.612;37.698;2023-04-07T03:14:36;7.32;;;1.73;;
75427;SDS011;64008;55.612;37.698;2023-04-07T03:17:02;5.28;;;1.55;;
75427;SDS011;64008;55.612;37.698;2023-04-07T03:19:28;6.43;;;1.90;;
75427;SDS011;64008;55.612;37.698;2023-04-07T03:21:54;6.53;;;1.77;;
75427;SDS011;64008;55.612;37.698;2023-04-07T03:24:19;6.78;;;1.83;;
75427;SDS011;64008;55.612;37.698;2023-04-07T03:26:45;5.28;;;1.45;;
75427;SDS011;64008;55.612;37.698;2023-04-07T03:29:11;7.45;;;1.83;;
75427;SDS011;64008;55.612;37.698;2023-04-07T03:31:36;6.43;;;1.70;;
75427;SDS011;64008;55.612;37.698;2023-04-07T03:34:02;5.28;;;1.58;;
75427;SDS011;64008;55.612;37.698;2023-04-07T03:36:28;7.70;;;1.90;;
75427;SDS011;64008;55.612;37.698;2023-04-07T03:38:55;9.38;;;2.10;;
75427;SDS011;64008;55.612;37.698;2023-04-07T03:41:21;8.82;;;2.08;;
75427;SDS011;64008;55.612;37.698;2023-04-07T03:43:47;7.30;;;2.13;;
75427;SDS011;64008;55.612;37.698;2023-04-07T03:46:12;8.02;;;1.67;;
75427;SDS011;64008;55.612;37.698;2023-04-07T03:48:38;6.40;;;1.95;;
75427;SDS011;64008;55.612;37.698;2023-04-07T03:51:03;5.57;;;2.03;;
75427;SDS011;64008;55.612;37.698;2023-04-07T03:53:29;7.55;;;2.30;;
75427;SDS011;64008;55.612;37.698;2023-04-07T03:55:54;7.03;;;2.38;;
75427;SDS011;64008;55.612;37.698;2023-04-07T03:58:20;6.53;;;2.00;;
75427;SDS011;64008;55.612;37.698;2023-04-07T04:00:45;6.72;;;1.63;;
75427;SDS011;64008;55.612;37.698;2023-04-07T04:03:11;6.50;;;1.70;;
75427;SDS011;64008;55.612;37.698;2023-04-07T04:05:36;7.88;;;1.73;;
75427;SDS011;64008;55.612;37.698;2023-04-07T04:08:02;8.32;;;1.80;;
75427;SDS011;64008;55.612;37.698;2023-04-07T04:10:27;6.10;;;1.67;;
75427;SDS011;64008;55.612;37.698;2023-04-07T04:12:53;6.20;;;1.33;;
75427;SDS011;64008;55.612;37.698;2023-04-07T04:15:18;7.57;;;1.70;;
75427;SDS011;64008;55.612;37.698;2023-04-07T04:17:44;6.80;;;1.70;;
75427;SDS011;64008;55.612;37.698;2023-04-07T04:20:10;6.82;;;1.50;;
75427;SDS011;64008;55.612;37.698;2023-04-07T04:22:36;8.30;;;1.65;;
75427;SDS011;64008;55.612;37.698;2023-04-07T04:25:02;7.80;;;1.40;;
75427;SDS011;64008;55.612;37.698;2023-04-07T04:29:53;5.88;;;1.30;;
75427;SDS011;64008;55.612;37.698;2023-04-07T04:32:19;8.68;;;1.65;;
75427;SDS011;64008;55.612;37.698;2023-04-07T04:34:45;7.57;;;1.70;;
75427;SDS011;64008;55.612;37.698;2023-04-07T04:37:10;9.23;;;1.80;;
75427;SDS011;64008;55.612;37.698;2023-04-07T04:39:36;6.78;;;1.60;;
75427;SDS011;64008;55.612;37.698;2023-04-07T04:42:01;9.57;;;1.70;;
75427;SDS011;64008;55.612;37.698;2023-04-07T04:44:28;7.47;;;1.85;;
75427;SDS011;64008;55.612;37.698;2023-04-07T04:49:20;9.85;;;2.50;;
75427;SDS011;64008;55.612;37.698;2023-04-07T04:51:45;9.90;;;3.05;;
75427;SDS011;64008;55.612;37.698;2023-04-07T04:54:11;10.98;;;2.65;;
75427;SDS011;64008;55.612;37.698;2023-04-07T04:56:36;9.75;;;2.45;;
75427;SDS011;64008;55.612;37.698;2023-04-07T04:59:02;6.90;;;2.42;;
75427;SDS011;64008;55.612;37.698;2023-04-07T05:03:54;7.78;;;2.22;;
75427;SDS011;64008;55.612;37.698;2023-04-07T05:06:20;7.45;;;2.05;;
75427;SDS011;64008;55.612;37.698;2023-04-07T05:08:46;8.98;;;2.50;;
75427;SDS011;64008;55.612;37.698;2023-04-07T05:11:11;11.90;;;2.10;;
75427;SDS011;64008;55.612;37.698;2023-04-07T05:13:37;6.13;;;1.95;;
75427;SDS011;64008;55.612;37.698;2023-04-07T05:16:03;8.00;;;1.70;;
75427;SDS011;64008;55.612;37.698;2023-04-07T05:18:28;10.70;;;2.05;;
75427;SDS011;64008;55.612;37.698;2023-04-07T05:20:54;7.07;;;1.95;;
75427;SDS011;64008;55.612;37.698;2023-04-07T05:23:19;4.68;;;1.77;;
75427;SDS011;64008;55.612;37.698;2023-04-07T05:25:45;5.95;;;1.88;;
75427;SDS011;64008;55.612;37.698;2023-04-07T05:28:11;5.20;;;1.48;;
75427;SDS011;64008;55.612;37.698;2023-04-07T05:30:36;6.57;;;1.85;;
75427;SDS011;64008;55.612;37.698;2023-04-07T05:33:02;10.02;;;1.90;;
75427;SDS011;64008;55.612;37.698;2023-04-07T05:35:27;6.13;;;1.92;;
75427;SDS011;64008;55.612;37.698;2023-04-07T05:37:53;6.75;;;1.77;;
75427;SDS011;64008;55.612;37.698;2023-04-07T05:40:18;5.75;;;1.70;;
75427;SDS011;64008;55.612;37.698;2023-04-07T05:42:44;9.35;;;2.17;;
75427;SDS011;64008;55.612;37.698;2023-04-07T05:45:10;6.47;;;2.08;;
75427;SDS011;64008;55.612;37.698;2023-04-07T05:47:35;7.75;;;1.58;;
75427;SDS011;64008;55.612;37.698;2023-04-07T05:50:01;7.80;;;1.80;;
75427;SDS011;64008;55.612;37.698;2023-04-07T05:52:26;6.20;;;1.63;;
75427;SDS011;64008;55.612;37.698;2023-04-07T05:54:52;6.43;;;1.90;;
75427;SDS011;64008;55.612;37.698;2023-04-07T05:57:17;7.28;;;2.10;;
75427;SDS011;64008;55.612;37.698;2023-04-07T05:59:43;8.43;;;2.20;;
75427;SDS011;64008;55.612;37.698;2023-04-07T06:02:09;6.90;;;1.75;;
75427;SDS011;64008;55.612;37.698;2023-04-07T06:04:34;8.40;;;1.60;;
75427;SDS011;64008;55.612;37.698;2023-04-07T06:07:01;6.05;;;1.67;;
75427;SDS011;64008;55.612;37.698;2023-04-07T06:11:52;5.25;;;1.70;;
75427;SDS011;64008;55.612;37.698;2023-04-07T06:14:18;8.73;;;1.80;;
75427;SDS011;64008;55.612;37.698;2023-04-07T06:16:43;4.57;;;1.40;;
75427;SDS011;64008;55.612;37.698;2023-04-07T06:19:09;6.07;;;1.90;;
75427;SDS011;64008;55.612;37.698;2023-04-07T06:21:35;7.90;;;1.75;;
75427;SDS011;64008;55.612;37.698;2023-04-07T06:24:00;9.60;;;1.55;;
75427;SDS011;64008;55.612;37.698;2023-04-07T06:26:26;21.65;;;2.20;;
75427;SDS011;64008;55.612;37.698;2023-04-07T06:28:52;20.83;;;2.05;;
75427;SDS011;64008;55.612;37.698;2023-04-07T06:31:18;9.93;;;2.15;;
75427;SDS011;64008;55.612;37.698;2023-04-07T06:33:43;12.25;;;2.17;;
75427;SDS011;64008;55.612;37.698;2023-04-07T06:36:10;17.73;;;2.03;;
75427;SDS011;64008;55.612;37.698;2023-04-07T06:38:35;6.32;;;1.77;;
75427;SDS011;64008;55.612;37.698;2023-04-07T06:41:01;8.77;;;1.92;;
75427;SDS011;64008;55.612;37.698;2023-04-07T06:43:27;7.72;;;1.95;;
75427;SDS011;64008;55.612;37.698;2023-04-07T06:45:54;5.72;;;1.90;;
75427;SDS011;64008;55.612;37.698;2023-04-07T06:48:20;9.55;;;2.03;;
75427;SDS011;64008;55.612;37.698;2023-04-07T06:50:47;7.93;;;1.70;;
75427;SDS011;64008;55.612;37.698;2023-04-07T06:53:13;7.00;;;1.80;;
75427;SDS011;64008;55.612;37.698;2023-04-07T06:55:39;18.35;;;2.67;;
75427;SDS011;64008;55.612;37.698;2023-04-07T06:58:05;8.35;;;1.80;;
75427;SDS011;64008;55.612;37.698;2023-04-07T07:00:30;8.55;;;1.85;;
75427;SDS011;64008;55.612;37.698;2023-04-07T07:02:56;10.50;;;2.17;;
75427;SDS011;64008;55.612;37.698;2023-04-07T07:05:21;11.60;;;2.20;;
75427;SDS011;64008;55.612;37.698;2023-04-07T07:07:47;16.38;;;2.28;;
75427;SDS011;64008;55.612;37.698;2023-04-07T07:10:13;11.98;;;2.05;;
75427;SDS011;64008;55.612;37.698;2023-04-07T07:12:39;9.32;;;2.22;;
75427;SDS011;64008;55.612;37.698;2023-04-07T07:15:05;12.27;;;2.38;;
75427;SDS011;64008;55.612;37.698;2023-04-07T07:19:57;7.35;;;1.98;;
75427;SDS011;64008;55.612;37.698;2023-04-07T07:22:22;7.80;;;1.83;;
75427;SDS011;64008;55.612;37.698;2023-04-07T07:24:48;10.00;;;2.03;;
75427;SDS011;64008;55.612;37.698;2023-04-07T07:27:13;11.07;;;2.60;;
75427;SDS011;64008;55.612;37.698;2023-04-07T07:29:39;6.85;;;1.83;;
75427;SDS011;64008;55.612;37.698;2023-04-07T07:32:05;8.52;;;2.00;;
75427;SDS011;64008;55.612;37.698;2023-04-07T07:34:31;7.00;;;2.20;;
75427;SDS011;64008;55.612;37.698;2023-04-07T07:36:57;5.68;;;1.60;;
75427;SDS011;64008;55.612;37.698;2023-04-07T07:39:23;7.68;;;2.03;;
75427;SDS011;64008;55.612;37.698;2023-04-07T07:41:49;12.40;;;2.45;;
75427;SDS011;64008;55.612;37.698;2023-04-07T07:44:15;6.63;;;1.67;;
75427;SDS011;64008;55.612;37.698;2023-04-07T07:46:41;6.38;;;1.40;;
75427;SDS011;64008;55.612;37.698;2023-04-07T07:49:07;6.65;;;1.88;;
75427;SDS011;64008;55.612;37.698;2023-04-07T07:51:33;6.85;;;1.58;;
75427;SDS011;64008;55.612;37.698;2023-04-07T07:53:58;6.32;;;1.60;;
75427;SDS011;64008;55.612;37.698;2023-04-07T07:56:24;8.02;;;1.45;;
75427;SDS011;64008;55.612;37.698;2023-04-07T07:58:50;4.75;;;1.42;;
75427;SDS011;64008;55.612;37.698;2023-04-07T08:01:15;4.40;;;1.20;;
75427;SDS011;64008;55.612;37.698;2023-04-07T08:03:41;9.02;;;1.40;;
75427;SDS011;64008;55.612;37.698;2023-04-07T08:06:06;4.97;;;1.40;;
75427;SDS011;64008;55.612;37.698;2023-04-07T08:10:58;5.57;;;1.27;;
75427;SDS011;64008;55.612;37.698;2023-04-07T08:13:24;5.95;;;1.10;;
75427;SDS011;64008;55.612;37.698;2023-04-07T08:15:50;3.67;;;1.30;;
75427;SDS011;64008;55.612;37.698;2023-04-07T08:18:15;6.18;;;1.52;;
75427;SDS011;64008;55.612;37.698;2023-04-07T08:20:41;6.07;;;1.20;;
75427;SDS011;64008;55.612;37.698;2023-04-07T08:23:06;3.63;;;1.17;;
75427;SDS011;64008;55.612;37.698;2023-04-07T08:25:32;4.60;;;1.25;;
75427;SDS011;64008;55.612;37.698;2023-04-07T08:27:57;6.35;;;1.65;;
75427;SDS011;64008;55.612;37.698;2023-04-07T08:30:23;3.90;;;1.17;;
75427;SDS011;64008;55.612;37.698;2023-04-07T08:32:48;3.63;;;0.98;;
75427;SDS011;64008;55.612;37.698;2023-04-07T08:35:14;5.25;;;1.27;;
75427;SDS011;64008;55.612;37.698;2023-04-07T08:37:40;4.18;;;1.25;;
75427;SDS011;64008;55.612;37.698;2023-04-07T08:40:07;3.83;;;1.08;;
75427;SDS011;64008;55.612;37.698;2023-04-07T08:42:34;5.45;;;1.10;;
75427;SDS011;64008;55.612;37.698;2023-04-07T08:45:03;3.67;;;1.10;;
75427;SDS011;64008;55.612;37.698;2023-04-07T08:47:31;2.92;;;0.93;;
75427;SDS011;64008;55.612;37.698;2023-04-07T08:50:02;4.15;;;0.90;;
75427;SDS011;64008;55.612;37.698;2023-04-07T08:52:50;4.55;;;1.10;;
75427;SDS011;64008;55.612;37.698;2023-04-07T08:55:14;3.72;;;0.82;;
75427;SDS011;64008;55.612;37.698;2023-04-07T08:57:41;4.80;;;1.23;;
75427;SDS011;64008;55.612;37.698;2023-04-07T09:00:07;3.72;;;1.20;;
75427;SDS011;64008;55.612;37.698;2023-04-07T09:02:35;4.60;;;1.10;;
75427;SDS011;64008;55.612;37.698;2023-04-07T09:05:02;3.90;;;1.20;;
75427;SDS011;64008;55.612;37.698;2023-04-07T09:07:30;4.97;;;1.10;;
75427;SDS011;64008;55.612;37.698;2023-04-07T09:09:57;4.72;;;0.85;;
75427;SDS011;64008;55.612;37.698;2023-04-07T09:12:23;5.20;;;1.10;;
75427;SDS011;64008;55.612;37.698;2023-04-07T09:14:49;3.13;;;1.05;;
75427;SDS011;64008;55.612;37.698;2023-04-07T09:17:14;4.50;;;0.90;;
75427;SDS011;64008;55.612;37.698;2023-04-07T09:19:40;2.88;;;0.90;;
75427;SDS011;64008;55.612;37.698;2023-04-07T09:22:05;3.20;;;1.15;;
75427;SDS011;64008;55.612;37.698;2023-04-07T09:24:32;6.28;;;1.10;;
75427;SDS011;64008;55.612;37.698;2023-04-07T09:27:10;4.25;;;0.93;;
75427;SDS011;64008;55.612;37.698;2023-04-07T09:29:37;5.88;;;0.95;;
75427;SDS011;64008;55.612;37.698;2023-04-07T09:32:04;3.70;;;1.08;;
75427;SDS011;64008;55.612;37.698;2023-04-07T09:34:32;4.80;;;1.23;;
75427;SDS011;64008;55.612;37.698;2023-04-07T09:37:02;3.80;;;1.17;;
75427;SDS011;64008;55.612;37.698;2023-04-07T09:39:30;3.78;;;1.02;;
75427;SDS011;64008;55.612;37.698;2023-04-07T09:41:56;4.63;;;1.42;;
75427;SDS011;64008;55.612;37.698;2023-04-07T09:44:22;4.22;;;1.02;;
75427;SDS011;64008;55.612;37.698;2023-04-07T09:49:19;5.25;;;1.40;;
75427;SDS011;64008;55.612;37.698;2023-04-07T09:51:55;3.97;;;0.90;;
75427;SDS011;64008;55.612;37.698;2023-04-07T09:54:31;3.20;;;1.10;;
75427;SDS011;64008;55.612;37.698;2023-04-07T09:57:02;4.15;;;1.13;;
75427;SDS011;64008;55.612;37.698;2023-04-07T09:59:29;3.22;;;1.10;;
75427;SDS011;64008;55.612;37.698;2023-04-07T10:01:56;4.13;;;1.17;;
75427;SDS011;64008;55.612;37.698;2023-04-07T10:04:25;4.25;;;1.15;;
75427;SDS011;64008;55.612;37.698;2023-04-07T10:06:52;6.07;;;1.42;;
75427;SDS011;64008;55.612;37.698;2023-04-07T10:09:18;4.32;;;0.98;;
75427;SDS011;64008;55.612;37.698;2023-04-07T10:11:45;4.60;;;1.40;;
75427;SDS011;64008;55.612;37.698;2023-04-07T10:14:12;3.60;;;1.45;;
75427;SDS011;64008;55.612;37.698;2023-04-07T10:16:37;4.13;;;1.13;;
75427;SDS011;64008;55.612;37.698;2023-04-07T10:19:06;5.10;;;1.15;;
75427;SDS011;64008;55.612;37.698;2023-04-07T10:26:44;5.55;;;1.05;;
75427;SDS011;64008;55.612;37.698;2023-04-07T10:29:14;4.85;;;1.30;;
75427;SDS011;64008;55.612;37.698;2023-04-07T10:31:41;4.10;;;1.20;;
75427;SDS011;64008;55.612;37.698;2023-04-07T10:34:07;5.13;;;1.27;;
75427;SDS011;64008;55.612;37.698;2023-04-07T10:36:33;4.00;;;1.30;;
75427;SDS011;64008;55.612;37.698;2023-04-07T10:41:37;5.05;;;1.20;;
75427;SDS011;64008;55.612;37.698;2023-04-07T10:44:04;3.70;;;0.95;;
75427;SDS011;64008;55.612;37.698;2023-04-07T10:49:15;5.10;;;1.35;;
75427;SDS011;64008;55.612;37.698;2023-04-07T10:51:41;7.65;;;1.15;;
75427;SDS011;64008;55.612;37.698;2023-04-07T10:54:17;4.18;;;1.15;;
75427;SDS011;64008;55.612;37.698;2023-04-07T10:59:32;6.28;;;1.13;;
75427;SDS011;64008;55.612;37.698;2023-04-07T11:04:39;3.53;;;1.10;;
75427;SDS011;64008;55.612;37.698;2023-04-07T11:07:06;3.97;;;1.00;;
75427;SDS011;64008;55.612;37.698;2023-04-07T11:09:32;4.80;;;1.20;;
75427;SDS011;64008;55.612;37.698;2023-04-07T11:11:58;7.30;;;1.45;;
75427;SDS011;64008;55.612;37.698;2023-04-07T11:14:27;4.20;;;1.17;;
75427;SDS011;64008;55.612;37.698;2023-04-07T11:16:57;7.50;;;1.33;;
75427;SDS011;64008;55.612;37.698;2023-04-07T11:19:23;5.72;;;1.50;;
75427;SDS011;64008;55.612;37.698;2023-04-07T11:21:49;5.97;;;1.50;;
75427;SDS011;64008;55.612;37.698;2023-04-07T11:24:30;5.18;;;1.25;;
75427;SDS011;64008;55.612;37.698;2023-04-07T11:27:01;3.90;;;1.20;;
75427;SDS011;64008;55.612;37.698;2023-04-07T11:29:27;7.78;;;1.38;;
75427;SDS011;64008;55.612;37.698;2023-04-07T11:31:57;7.03;;;1.10;;
75427;SDS011;64008;55.612;37.698;2023-04-07T11:34:30;5.18;;;1.20;;
75427;SDS011;64008;55.612;37.698;2023-04-07T11:36:57;8.32;;;1.42;;
75427;SDS011;64008;55.612;37.698;2023-04-07T11:39:25;4.85;;;1.02;;
75427;SDS011;64008;55.612;37.698;2023-04-07T11:41:57;6.13;;;1.10;;
75427;SDS011;64008;55.612;37.698;2023-04-07T11:44:23;4.40;;;1.20;;
75427;SDS011;64008;55.612;37.698;2023-04-07T11:46:54;5.57;;;1.20;;
75427;SDS011;64008;55.612;37.698;2023-04-07T11:49:21;4.72;;;1.17;;
75427;SDS011;64008;55.612;37.698;2023-04-07T11:51:59;4.05;;;1.30;;
75427;SDS011;64008;55.612;37.698;2023-04-07T11:54:27;3.90;;;1.00;;
75427;SDS011;64008;55.612;37.698;2023-04-07T11:57:22;3.60;;;1.00;;
75427;SDS011;64008;55.612;37.698;2023-04-07T12:00:07;6.35;;;1.40;;
75427;SDS011;64008;55.612;37.698;2023-04-07T12:02:35;4.43;;;1.05;;
75427;SDS011;64008;55.612;37.698;2023-04-07T12:05:01;5.70;;;1.52;;
75427;SDS011;64008;55.612;37.698;2023-04-07T12:07:27;5.82;;;1.10;;
75427;SDS011;64008;55.612;37.698;2023-04-07T12:09:53;6.10;;;1.67;;
75427;SDS011;64008;55.612;37.698;2023-04-07T12:12:28;3.67;;;0.90;;
75427;SDS011;64008;55.612;37.698;2023-04-07T12:14:54;6.45;;;1.17;;
75427;SDS011;64008;55.612;37.698;2023-04-07T12:17:21;4.72;;;1.05;;
75427;SDS011;64008;55.612;37.698;2023-04-07T12:19:50;3.63;;;0.85;;
75427;SDS011;64008;55.612;37.698;2023-04-07T12:22:17;4.72;;;1.92;;
75427;SDS011;64008;55.612;37.698;2023-04-07T12:24:43;3.30;;;1.08;;
75427;SDS011;64008;55.612;37.698;2023-04-07T12:27:08;5.20;;;1.05;;
75427;SDS011;64008;55.612;37.698;2023-04-07T12:29:34;3.85;;;0.93;;
75427;SDS011;64008;55.612;37.698;2023-04-07T12:32:03;3.72;;;1.10;;
75427;SDS011;64008;55.612;37.698;2023-04-07T12:34:29;4.03;;;1.17;;
75427;SDS011;64008;55.612;37.698;2023-04-07T12:36:54;4.72;;;1.00;;
75427;SDS011;64008;55.612;37.698;2023-04-07T12:39:20;4.00;;;1.27;;
75427;SDS011;64008;55.612;37.698;2023-04-07T12:41:45;3.75;;;0.90;;
75427;SDS011;64008;55.612;37.698;2023-04-07T12:44:12;4.63;;;1.15;;
75427;SDS011;64008;55.612;37.698;2023-04-07T12:46:38;3.78;;;1.10;;
75427;SDS011;64008;55.612;37.698;2023-04-07T12:49:03;3.15;;;1.00;;
75427;SDS011;64008;55.612;37.698;2023-04-07T12:51:29;4.30;;;0.82;;
75427;SDS011;64008;55.612;37.698;2023-04-07T12:53:57;3.63;;;1.00;;
75427;SDS011;64008;55.612;37.698;2023-04-07T12:56:24;4.00;;;1.15;;
75427;SDS011;64008;55.612;37.698;2023-04-07T12:58:50;5.18;;;1.17;;
75427;SDS011;64008;55.612;37.698;2023-04-07T13:01:17;3.10;;;1.00;;
75427;SDS011;64008;55.612;37.698;2023-04-07T13:03:43;3.85;;;0.80;;
75427;SDS011;64008;55.612;37.698;2023-04-07T13:06:08;5.53;;;1.50;;
75427;SDS011;64008;55.612;37.698;2023-04-07T13:08:34;5.65;;;1.10;;
75427;SDS011;64008;55.612;37.698;2023-04-07T13:11:00;5.28;;;0.88;;
75427;SDS011;64008;55.612;37.698;2023-04-07T13:13:26;5.75;;;1.13;;
75427;SDS011;64008;55.612;37.698;2023-04-07T13:15:51;4.60;;;1.25;;
75427;SDS011;64008;55.612;37.698;2023-04-07T13:18:17;7.35;;;1.63;;
75427;SDS011;64008;55.612;37.698;2023-04-07T13:20:43;3.35;;;0.88;;
75427;SDS011;64008;55.612;37.698;2023-04-07T13:23:08;4.18;;;0.90;;
75427;SDS011;64008;55.612;37.698;2023-04-07T13:25:34;4.38;;;0.90;;
75427;SDS011;64008;55.612;37.698;2023-04-07T13:28:00;3.75;;;0.90;;
75427;SDS011;64008;55.612;37.698;2023-04-07T13:30:25;2.67;;;1.02;;
75427;SDS011;64008;55.612;37.698;2023-04-07T13:32:51;3.70;;;0.93;;
75427;SDS011;64008;55.612;37.698;2023-04-07T13:35:17;2.90;;;0.90;;
75427;SDS011;64008;55.612;37.698;2023-04-07T13:37:43;3.17;;;0.98;;
75427;SDS011;64008;55.612;37.698;2023-04-07T13:40:09;3.15;;;1.02;;
75427;SDS011;64008;55.612;37.698;2023-04-07T13:42:36;3.53;;;1.20;;
75427;SDS011;64008;55.612;37.698;2023-04-07T13:45:02;4.30;;;0.95;;
75427;SDS011;64008;55.612;37.698;2023-04-07T13:47:28;3.25;;;1.02;;
75427;SDS011;64008;55.612;37.698;2023-04-07T13:49:58;5.75;;;1.08;;
75427;SDS011;64008;55.612;37.698;2023-04-07T13:52:27;3.50;;;1.10;;
75427;SDS011;64008;55.612;37.698;2023-04-07T13:54:52;5.72;;;1.27;;
75427;SDS011;64008;55.612;37.698;2023-04-07T13:57:19;4.78;;;1.20;;
75427;SDS011;64008;55.612;37.698;2023-04-07T13:59:48;4.15;;;1.00;;
75427;SDS011;64008;55.612;37.698;2023-04-07T14:02:18;3.63;;;1.13;;
75427;SDS011;64008;55.612;37.698;2023-04-07T14:04:44;4.65;;;1.15;;
75427;SDS011;64008;55.612;37.698;2023-04-07T14:07:10;3.97;;;1.10;;
75427;SDS011;64008;55.612;37.698;2023-04-07T14:09:36;2.95;;;1.10;;
75427;SDS011;64008;55.612;37.698;2023-04-07T14:12:02;4.13;;;1.25;;
75427;SDS011;64008;55.612;37.698;2023-04-07T14:14:28;3.55;;;1.13;;
75427;SDS011;64008;55.612;37.698;2023-04-07T14:16:54;3.85;;;1.02;;
75427;SDS011;64008;55.612;37.698;2023-04-07T14:19:21;3.85;;;1.15;;
75427;SDS011;64008;55.612;37.698;2023-04-07T14:21:47;4.25;;;1.05;;
75427;SDS011;64008;55.612;37.698;2023-04-07T14:24:13;4.20;;;0.90;;
75427;SDS011;64008;55.612;37.698;2023-04-07T14:26:39;4.78;;;1.13;;
75427;SDS011;64008;55.612;37.698;2023-04-07T14:29:04;3.72;;;1.15;;
75427;SDS011;64008;55.612;37.698;2023-04-07T14:31:30;4.43;;;1.35;;
75427;SDS011;64008;55.612;37.698;2023-04-07T14:33:55;5.82;;;1.42;;
75427;SDS011;64008;55.612;37.698;2023-04-07T14:36:21;4.45;;;1.27;;
75427;SDS011;64008;55.612;37.698;2023-04-07T14:41:14;4.53;;;1.00;;
75427;SDS011;64008;55.612;37.698;2023-04-07T14:43:40;4.45;;;1.20;;
75427;SDS011;64008;55.612;37.698;2023-04-07T14:46:06;3.15;;;1.02;;
75427;SDS011;64008;55.612;37.698;2023-04-07T14:48:32;3.70;;;1.20;;
75427;SDS011;64008;55.612;37.698;2023-04-07T14:50:58;3.42;;;1.00;;
75427;SDS011;64008;55.612;37.698;2023-04-07T14:53:24;3.78;;;1.02;;
75427;SDS011;64008;55.612;37.698;2023-04-07T14:55:49;3.22;;;1.00;;
75427;SDS011;64008;55.612;37.698;2023-04-07T14:58:15;4.20;;;1.17;;
75427;SDS011;64008;55.612;37.698;2023-04-07T15:00:40;4.10;;;1.40;;
75427;SDS011;64008;55.612;37.698;2023-04-07T15:03:06;6.53;;;1.23;;
75427;SDS011;64008;55.612;37.698;2023-04-07T15:05:31;5.28;;;1.17;;
75427;SDS011;64008;55.612;37.698;2023-04-07T15:07:57;7.82;;;1.30;;
75427;SDS011;64008;55.612;37.698;2023-04-07T15:10:23;4.45;;;1.10;;
75427;SDS011;64008;55.612;37.698;2023-04-07T15:12:48;4.60;;;1.10;;
75427;SDS011;64008;55.612;37.698;2023-04-07T15:15:14;3.45;;;1.02;;
75427;SDS011;64008;55.612;37.698;2023-04-07T15:17:40;8.98;;;1.42;;
75427;SDS011;64008;55.612;37.698;2023-04-07T15:20:06;3.95;;;1.25;;
75427;SDS011;64008;55.612;37.698;2023-04-07T15:22:32;4.90;;;1.40;;
75427;SDS011;64008;55.612;37.698;2023-04-07T15:24:57;9.10;;;1.40;;